• Join FlightAware (Why Join?)
  • Login
  • US Flag 
01:06PM EDT


 

Airport Tracker/Info


-or-


 

Live Flight TrackerFlight Track Log ✈ AWI3725 ✈ 23-04-2014 ✈ KBGR - KDCA

Flight Track Log - Related Links

Times and Time Zones

All times are in EDT time to prevent confusion due to time zone crossing. See the AWI3725 flight status page for this flight to view local times or setup timezone preferences in your user account.

Time Position Orientation Groundspeed Altitude Reporting Facility
EDT Latitude Longitude Course Direction KTS MPH feet Rate Location/Type
12:49PM 44.8281 -68.9117 226° Southwest 203 234 3,300  Level Boston Center
12:50PM 44.7842 -68.9706 224° Southwest 212 244 5,900 2,100 Climbing Boston Center
12:51PM 44.6108 -69.0783 222° Southwest  Level FlightAware Approximate
12:51PM 44.7347 -69.0336 222° Southwest 228 262 7,600  Level Boston Center
12:52PM 44.5436 -69.1623 222° Southwest  Level FlightAware Approximate
12:52PM 44.6781 -69.1039 221° Southwest 257 296 9,900  Level Boston Center
12:53PM 44.4779 -69.2484 226° Southwest  Level FlightAware Approximate
12:53PM 44.6158 -69.1819 222° Southwest 291 335 11,700  Level Boston Center
12:54PM 44.4105 -69.3447 226° Southwest  Level FlightAware Approximate
12:54PM 44.5478 -69.2644 221° Southwest 315 362 13,500  Level Boston Center
12:55PM 44.4803 -69.3489 222° Southwest 322 371 15,800 1,860 Climbing Boston Center
12:56PM 44.4117 -69.4333 221° Southwest 323 372 17,400 1,800 Climbing Boston Center
12:57PM 44.3425 -69.5189 222° Southwest 324 373 19,500 1,680 Climbing Boston Center
12:58PM 44.2717 -69.6036 221° Southwest 328 377 20,900 1,260 Climbing Boston Center
12:59PM 44.2011 -69.6908 222° Southwest 333 383 22,100 1,260 Climbing Boston Center
01:00PM 44.1297 -69.7775 221° Southwest 338 389 23,600 1,320 Climbing Boston Center
01:01PM 44.0586 -69.8628 221° Southwest 337 388 24,900 840 Climbing Boston Center
01:03PM 43.9869 -69.9503 221° Southwest 338 389 25,400 540 Climbing Boston Center
01:04PM 43.9111 -70.0381 220° Southwest 349 402 26,100 840 Climbing Boston Center
01:05PM 43.8336 -70.1269 220° Southwest 355 409 27,200 1,020 Climbing Boston Center
01:06PM 43.7611 -70.2186 222° Southwest 355 409 28,300 780 Climbing Boston Center
01:07PM 43.6881 -70.3078 221° Southwest 354 407 28,900 720 Climbing Boston Center
01:08PM 43.5981 -70.4089 219° Southwest 350 403 29,800 540 Climbing Boston Center
01:09PM 43.5231 -70.4961 220° Southwest 351 404 30,000 60 Climbing Boston Center
01:10PM 43.4456 -70.5892 221° Southwest 364 419 30,000  Level Boston Center
01:11PM 43.3608 -70.6544 209° Southwest 362 417 30,000  Level Boston Center
01:12PM 43.2700 -70.7117 205° Southwest 361 415 30,000  Level Boston Center
01:13PM 43.1789 -70.7694 205° Southwest 361 415 30,000  Level Boston Center
01:14PM 43.0867 -70.8289 205° Southwest 363 418 30,000  Level Boston Center
01:15PM 42.9908 -70.8761 200° South 368 423 30,000  Level Boston Center
01:16PM 42.8933 -70.9244 200° South 373 429 30,000  Level Boston Center
01:17PM 42.7744 -70.9825 200° South 379 436 30,000  Level Boston Center
01:18PM 42.6756 -71.0317 200° South 380 437 30,000  Level Boston Center
01:19PM 42.5761 -71.0797 200° South 380 437 30,000  Level Boston Center
01:20PM 42.4764 -71.1281 200° South 381 438 30,000  Level Boston Center
01:21PM 42.4000 -71.2178 221° Southwest 377 434 30,000  Level Boston Center
01:22PM 42.3597 -71.3525 248° West 382 440 30,000  Level Boston Center
01:23PM 42.3172 -71.4911 248° West 383 441 30,000  Level Boston Center
01:24PM 42.2758 -71.6250 247° West 385 443 30,000  Level Boston Center
01:25PM 42.2344 -71.7572 247° West 385 443 30,000  Level Boston Center
01:26PM 42.1931 -71.8900 247° West 385 443 30,000  Level Boston Center
01:27PM 42.1522 -72.0244 248° West 385 443 30,000  Level Boston Center
01:28PM 42.1017 -72.1878 247° West 390 449 30,000  Level Boston Center
01:29PM 42.0578 -72.3217 246° West 391 450 30,000  Level Boston Center
01:30PM 41.9881 -72.4350 230° Southwest 391 450 30,000  Level Boston Center
01:31PM 41.9181 -72.5497 231° Southwest 396 456 30,000  Level Boston Center
01:32PM 41.8472 -72.6664 231° Southwest 397 457 30,000  Level Boston Center
01:33PM 41.7769 -72.7828 231° Southwest 400 460 30,000  Level Boston Center
01:34PM 41.7047 -72.8981 230° Southwest 401 461 30,000  Level Boston Center
01:35PM 41.6331 -73.0142 230° Southwest 402 463 30,000  Level Boston Center
01:36PM 41.5628 -73.1294 231° Southwest 403 464 30,000  Level Boston Center
01:37PM 41.4789 -73.2658 231° Southwest 398 458 30,000  Level Boston Center
01:38PM 41.4097 -73.3764 230° Southwest 393 452 30,000  Level Boston Center
01:39PM 41.3392 -73.4853 229° Southwest 392 451 30,000  Level Boston Center
01:40PM 41.2708 -73.5972 231° Southwest 392 451 30,000  Level Boston Center
01:41PM 41.2028 -73.7117 232° Southwest 392 451 30,000  Level Boston Center
01:42PM 41.1336 -73.8258 231° Southwest 395 455 30,000  Level Boston Center
01:43PM 41.0758 -73.9256 232° Southwest 407 468 30,000 -300 Level New York Center
01:44PM 41.0036 -74.0458 232° Southwest 413 475 29,500 -960 Descending New York Center
01:45PM 40.9294 -74.1711 232° Southwest 424 488 28,200 -780 Descending New York Center
01:46PM 40.8617 -74.2803 231° Southwest 429 494 28,000 -120 Descending New York Center
01:47PM 40.7892 -74.3972 231° Southwest 429 494 28,000  Level New York Center
01:48PM 40.7167 -74.5219 233° Southwest 429 494 28,000  Level New York Center
01:49PM 40.6439 -74.6411 231° Southwest 429 494 28,000 -240 Level New York Center
01:50PM 40.5692 -74.7625 231° Southwest 429 494 27,600 -840 Descending New York Center
01:51PM 40.4903 -74.8725 227° Southwest 429 494 26,400 -1,140 Descending New York Center
01:52PM 40.4156 -74.9800 228° Southwest 424 488 25,300 -1,200 Descending New York Center
01:53PM 40.3322 -75.1000 228° Southwest 412 474 24,000 -1,380 Descending New York Center
01:54PM 40.2575 -75.2042 227° Southwest 401 461 22,700 -1,020 Descending New York Center
01:55PM 40.1847 -75.3056 227° Southwest 396 456 22,000 -360 Descending New York Center
01:56PM 40.1142 -75.4067 228° Southwest 396 456 22,000  Level New York Center
01:57PM 40.0417 -75.5022 225° Southwest 390 449 22,000  Level New York Center
01:58PM 39.9725 -75.6114 230° Southwest 390 449 22,000  Level New York Center
01:59PM 39.9033 -75.7203 230° Southwest 396 456 22,000  Level New York Center
02:00PM 39.8319 -75.8289 229° Southwest 401 461 22,000 -660 Level New York Center
02:01PM 39.7603 -75.9450 231° Southwest 401 461 20,700 -1,620 Descending New York Center
02:02PM 39.6914 -76.0425 227° Southwest 401 461 18,800 -2,160 Descending New York Center
02:03PM 39.6261 -76.1483 231° Southwest 380 437 16,400 -1,980 Descending New York Center
02:04PM 39.5700 -76.2356 230° Southwest 374 430 14,800 -1,860 Descending New York Center
02:05PM 39.5167 -76.3333 235° Southwest 358 412 13,200 -1,920 Descending Potomac TRACON
02:06PM 39.4500 -76.4167 224° Southwest 350 403 11,600 -1,620 Descending Potomac TRACON
02:07PM 39.3667 -76.4833 212° Southwest 349 402 10,100 -900 Descending Potomac TRACON
02:08PM 39.3000 -76.5500 218° Southwest 347 399 10,000 -60 Descending Potomac TRACON
02:09PM 39.2167 -76.6333 218° Southwest 323 372 10,000  Level Potomac TRACON
02:10PM 39.1500 -76.7000 218° Southwest 295 339 10,000  Level Potomac TRACON
02:11PM 39.0833 -76.7500 210° Southwest 273 314 10,000 -420 Level Potomac TRACON
02:12PM 39.0333 -76.8333 232° Southwest 273 314 9,200 -1,080 Descending Potomac TRACON
02:13PM 38.9833 -76.8833 218° Southwest 263 303 8,000 -1,500 Descending Potomac TRACON
02:14PM 38.9333 -76.9333 218° Southwest 271 312 6,500 -1,020 Descending Potomac TRACON
02:15PM 38.8500 -76.9500 189° South 269 310 6,000 -900 Descending Potomac TRACON
02:16PM 38.7667 -76.9500 180° South 257 296 4,700 -1,020 Descending Potomac TRACON
02:17PM 38.7000 -76.9333 169° South 228 262 4,000 -420 Descending Potomac TRACON
02:18PM 38.6500 -76.9333 180° South 193 222 4,000  Level Potomac TRACON
02:19PM 38.6167 -76.9500 201° Southwest 192 221 4,000 -540 Level Potomac TRACON
02:20PM 38.6167 -76.9833 270° West 178 205 3,000 -840 Descending Potomac TRACON
02:21PM 38.6667 -77.0167 333° Northwest 152 175 2,500 -300 Descending Potomac TRACON
02:22PM 38.7000 -77.0167 360° North 154 177 2,500 -300 Level Potomac TRACON
02:23PM 38.7500 -77.0333 345° North 155 178 2,000 -600 Descending Potomac TRACON
02:24PM 38.7833 -77.0333 360° North 161 185 1,300 -660 Descending Potomac TRACON
02:24PM 38.8167 -77.0167 21° North 138 159 800 -600 Descending Potomac TRACON